createdAt,value
2022-11-10T00:00:30.982Z,94467.00
2022-11-10T00:03:06.356Z,94473.00
2022-11-10T00:05:35.851Z,94471.00
2022-11-10T00:08:13.594Z,94471.00
2022-11-10T00:10:58.645Z,94479.00
2022-11-10T00:13:32.386Z,94480.00
2022-11-10T00:16:20.811Z,94496.00
2022-11-10T00:18:50.383Z,94492.00
2022-11-10T00:21:18.423Z,94497.00
2022-11-10T00:23:48.554Z,94488.00
2022-11-10T00:26:23.269Z,94485.00
2022-11-10T00:28:52.915Z,94494.00
2022-11-10T00:31:19.851Z,94494.00
2022-11-10T00:33:51.292Z,94491.00
2022-11-10T00:36:18.392Z,94498.00
2022-11-10T00:38:45.253Z,94488.00
2022-11-10T00:41:12.934Z,94496.00
2022-11-10T00:43:39.849Z,94497.00
2022-11-10T00:46:06.759Z,94501.00
2022-11-10T00:48:33.634Z,94500.00
2022-11-10T00:51:00.535Z,94505.00
2022-11-10T00:53:29.872Z,94508.00
2022-11-10T00:55:59.258Z,94508.00
2022-11-10T00:58:28.601Z,94522.00
2022-11-10T01:01:03.818Z,94511.00
2022-11-10T01:03:33.260Z,94511.00
2022-11-10T01:06:18.314Z,94517.00
2022-11-10T01:08:45.662Z,94510.00
2022-11-10T01:11:20.281Z,94516.00
2022-11-10T01:13:49.329Z,94520.00
2022-11-10T01:16:36.447Z,94521.00
2022-11-10T01:19:08.884Z,94523.00
2022-11-10T01:21:36.581Z,94527.00
2022-11-10T01:24:03.673Z,94522.00
2022-11-10T01:26:30.592Z,94529.00
2022-11-10T01:28:58.016Z,94538.00
2022-11-10T01:31:24.868Z,94539.00
2022-11-10T01:33:51.729Z,94543.00
2022-11-10T01:36:18.700Z,94547.00
2022-11-10T01:38:45.640Z,94546.00
2022-11-10T01:41:15.469Z,94552.00
2022-11-10T01:43:44.917Z,94534.00
2022-11-10T01:46:13.628Z,94551.00
2022-11-10T01:48:49.891Z,94554.00
2022-11-10T01:51:37.645Z,94555.00
2022-11-10T01:54:21.089Z,94569.00
2022-11-10T01:56:58.427Z,94578.00
2022-11-10T01:59:30.433Z,94563.00
2022-11-10T02:02:25.187Z,94570.00
2022-11-10T02:04:52.243Z,94565.00
2022-11-10T02:07:19.793Z,94567.00
2022-11-10T02:09:46.706Z,94566.00
2022-11-10T02:12:16.306Z,94556.00
2022-11-10T02:14:43.642Z,94574.00
2022-11-10T02:17:10.748Z,94568.00
2022-11-10T02:19:42.291Z,94576.00
2022-11-10T02:22:09.073Z,94579.00
2022-11-10T02:24:36.059Z,94583.00
2022-11-10T02:27:07.997Z,94579.00
2022-11-10T02:29:34.859Z,94592.00
2022-11-10T02:32:01.725Z,94598.00
2022-11-10T02:34:30.971Z,94595.00
2022-11-10T02:36:57.779Z,94599.00
2022-11-10T02:39:24.630Z,94601.00
2022-11-10T02:41:51.524Z,94604.00
2022-11-10T02:44:18.513Z,94605.00
2022-11-10T02:46:47.840Z,94607.00
2022-11-10T02:49:17.019Z,94606.00
2022-11-10T02:51:43.923Z,94605.00
2022-11-10T02:54:10.790Z,94607.00
2022-11-10T02:56:37.628Z,94614.00
2022-11-10T02:59:05.101Z,94612.00
2022-11-10T03:01:32.005Z,94615.00
2022-11-10T03:03:58.884Z,94614.00
2022-11-10T03:06:30.569Z,94635.00
2022-11-10T03:08:57.560Z,94634.00
2022-11-10T03:11:29.354Z,94634.00
2022-11-10T03:14:02.532Z,94624.00
2022-11-10T03:16:30.518Z,94639.00
2022-11-10T03:18:57.401Z,94637.00
2022-11-10T03:21:26.505Z,94645.00
2022-11-10T03:23:57.975Z,94639.00
2022-11-10T03:26:24.776Z,94659.00
2022-11-10T03:28:53.855Z,94660.00
2022-11-10T03:31:20.784Z,94656.00
2022-11-10T03:33:50.698Z,94664.00
2022-11-10T03:36:23.183Z,94670.00
2022-11-10T03:38:52.485Z,94672.00
2022-11-10T03:41:21.598Z,94675.00
2022-11-10T03:43:49.497Z,94684.00
2022-11-10T03:46:17.668Z,94688.00
2022-11-10T03:48:50.227Z,94691.00
2022-11-10T03:51:20.046Z,94681.00
2022-11-10T03:53:49.283Z,94684.00
2022-11-10T03:56:18.497Z,94700.00
2022-11-10T03:58:45.346Z,94700.00
2022-11-10T04:01:12.272Z,94705.00
2022-11-10T04:03:39.203Z,94703.00
2022-11-10T04:06:25.057Z,94714.00
2022-11-10T04:09:00.553Z,94714.00
2022-11-10T04:11:50.532Z,94712.00
2022-11-10T04:14:36.122Z,94713.00
2022-11-10T04:17:03.944Z,94718.00
2022-11-10T04:19:31.653Z,94716.00
2022-11-10T04:22:00.695Z,94727.00
2022-11-10T04:24:27.548Z,94725.00
2022-11-10T04:26:56.906Z,94720.00
2022-11-10T04:29:23.856Z,94719.00
2022-11-10T04:31:50.691Z,94733.00
2022-11-10T04:34:17.501Z,94734.00
2022-11-10T04:36:45.096Z,94722.00
2022-11-10T04:39:14.714Z,94731.00
2022-11-10T04:41:41.574Z,94732.00
2022-11-10T04:44:08.650Z,94739.00
2022-11-10T04:46:40.874Z,94738.00
2022-11-10T04:49:08.366Z,94747.00
2022-11-10T04:51:39.321Z,94745.00
2022-11-10T04:54:08.989Z,94744.00
2022-11-10T04:56:35.881Z,94758.00
2022-11-10T04:59:05.753Z,94760.00
2022-11-10T05:01:32.618Z,94754.00
2022-11-10T05:04:05.558Z,94780.00
2022-11-10T05:06:34.572Z,94787.00
2022-11-10T05:09:01.454Z,94791.00
2022-11-10T05:11:33.114Z,94782.00
2022-11-10T05:14:03.261Z,94809.00
2022-11-10T05:16:30.069Z,94810.00
2022-11-10T05:18:59.527Z,94812.00
2022-11-10T05:21:28.860Z,94813.00
2022-11-10T05:23:55.690Z,94812.00
2022-11-10T05:26:25.061Z,94795.00
2022-11-10T05:28:51.883Z,94806.00
2022-11-10T05:31:20.968Z,94806.00
2022-11-10T05:33:47.870Z,94805.00
2022-11-10T05:36:17.424Z,94821.00
2022-11-10T05:38:44.252Z,94819.00
2022-11-10T05:41:14.423Z,94835.00
2022-11-10T05:43:41.385Z,94840.00
2022-11-10T05:46:08.389Z,94841.00
2022-11-10T05:48:35.245Z,94837.00
2022-11-10T05:51:02.166Z,94842.00
2022-11-10T05:53:29.041Z,94835.00
2022-11-10T05:55:55.901Z,94845.00
2022-11-10T05:58:29.797Z,94849.00
2022-11-10T06:00:59.099Z,94847.00
2022-11-10T06:03:26.442Z,94853.00
2022-11-10T06:05:55.876Z,94848.00
2022-11-10T06:08:25.083Z,94851.00
2022-11-10T06:10:52.049Z,94854.00
2022-11-10T06:13:19.048Z,94863.00
2022-11-10T06:15:50.150Z,94866.00
2022-11-10T06:18:23.069Z,94858.00
2022-11-10T06:20:49.900Z,94866.00
2022-11-10T06:23:17.071Z,94872.00
2022-11-10T06:25:46.329Z,94876.00
2022-11-10T06:28:15.854Z,94878.00
2022-11-10T06:30:42.752Z,94890.00
2022-11-10T06:33:12.477Z,94889.00
2022-11-10T06:35:39.585Z,94888.00
2022-11-10T06:38:10.647Z,94877.00
2022-11-10T06:40:37.598Z,94890.00
2022-11-10T06:43:04.995Z,94896.00
2022-11-10T06:45:31.922Z,94898.00
2022-11-10T06:48:08.203Z,94895.00
2022-11-10T06:50:37.693Z,94913.00
2022-11-10T06:53:06.784Z,94921.00
2022-11-10T06:55:36.684Z,94925.00
2022-11-10T06:58:03.530Z,94932.00
2022-11-10T07:00:33.455Z,94948.00
2022-11-10T07:03:12.345Z,94954.00
2022-11-10T07:05:39.517Z,94948.00
2022-11-10T07:08:10.651Z,94954.00
2022-11-10T07:10:38.084Z,94956.00
2022-11-10T07:13:07.382Z,94963.00
2022-11-10T07:15:36.763Z,94953.00
2022-11-10T07:18:06.787Z,94961.00
2022-11-10T07:20:34.217Z,94977.00
2022-11-10T07:23:07.222Z,94972.00
2022-11-10T07:25:40.126Z,94996.00
2022-11-10T07:28:10.669Z,95004.00
2022-11-10T07:30:37.851Z,94998.00
2022-11-10T07:33:18.528Z,94999.00
2022-11-10T07:35:54.143Z,95009.00
2022-11-10T07:38:21.393Z,95015.00
2022-11-10T07:40:54.043Z,95027.00
2022-11-10T07:43:25.507Z,95028.00
2022-11-10T07:45:53.324Z,95039.00
2022-11-10T07:48:22.865Z,95038.00
2022-11-10T07:50:51.161Z,95038.00
2022-11-10T07:53:20.765Z,95034.00
2022-11-10T07:55:48.256Z,95040.00
2022-11-10T07:58:17.783Z,95039.00
2022-11-10T08:00:46.021Z,95042.00
2022-11-10T08:03:17.081Z,95051.00
2022-11-10T08:05:44.718Z,95060.00
2022-11-10T08:08:12.185Z,95067.00
2022-11-10T08:10:40.653Z,95071.00
2022-11-10T08:13:10.474Z,95066.00
2022-11-10T08:15:38.700Z,95053.00
2022-11-10T08:18:20.244Z,95060.00
2022-11-10T08:20:47.449Z,95072.00
2022-11-10T08:23:14.682Z,95058.00
2022-11-10T08:25:42.133Z,95050.00
2022-11-10T08:28:17.680Z,95087.00
2022-11-10T08:30:47.186Z,95078.00
2022-11-10T08:33:20.047Z,95088.00
2022-11-10T08:35:50.686Z,95092.00
2022-11-10T08:38:22.756Z,95092.00
2022-11-10T08:40:50.415Z,95096.00
2022-11-10T08:43:18.598Z,95107.00
2022-11-10T08:45:48.216Z,95110.00
2022-11-10T08:48:20.316Z,95118.00
2022-11-10T08:50:49.473Z,95112.00
2022-11-10T08:53:23.973Z,95119.00
2022-11-10T08:55:53.211Z,95111.00
2022-11-10T08:58:22.576Z,95111.00
2022-11-10T09:00:50.370Z,95120.00
2022-11-10T09:03:26.579Z,95117.00
2022-11-10T09:05:58.351Z,95105.00
2022-11-10T09:08:28.831Z,95109.00
2022-11-10T09:10:55.996Z,95105.00
2022-11-10T09:13:29.079Z,95120.00
2022-11-10T09:16:01.822Z,95125.00
2022-11-10T09:18:29.402Z,95129.00
2022-11-10T09:20:58.903Z,95133.00
2022-11-10T09:23:28.760Z,95133.00
2022-11-10T09:25:56.663Z,95131.00
2022-11-10T09:28:29.177Z,95130.00
2022-11-10T09:30:56.049Z,95138.00
2022-11-10T09:33:23.229Z,95136.00
2022-11-10T09:36:00.505Z,95147.00
2022-11-10T09:38:30.272Z,95156.00
2022-11-10T09:41:15.167Z,95157.00
2022-11-10T09:44:05.552Z,95157.00
2022-11-10T09:46:50.275Z,95164.00
2022-11-10T09:49:43.864Z,95164.00
2022-11-10T09:52:13.480Z,95168.00
2022-11-10T09:54:54.767Z,95163.00
2022-11-10T09:57:27.425Z,95170.00
2022-11-10T09:59:54.581Z,95172.00
2022-11-10T10:02:30.756Z,95172.00
2022-11-10T10:05:21.559Z,95163.00
2022-11-10T10:08:01.458Z,95172.00
2022-11-10T10:10:41.356Z,95174.00
2022-11-10T10:13:25.492Z,95184.00
2022-11-10T10:16:26.082Z,95183.00
2022-11-10T10:19:23.125Z,95194.00
2022-11-10T10:22:02.703Z,95190.00
2022-11-10T10:24:34.734Z,95193.00
2022-11-10T10:27:09.094Z,95188.00
2022-11-10T10:29:49.191Z,95185.00
2022-11-10T10:32:21.088Z,95183.00
2022-11-10T10:34:50.312Z,95180.00
2022-11-10T10:37:25.191Z,95185.00
2022-11-10T10:39:58.066Z,95185.00
2022-11-10T10:42:28.123Z,95182.00
2022-11-10T10:45:31.106Z,95187.00
2022-11-10T10:47:58.287Z,95184.00
2022-11-10T10:50:28.145Z,95186.00
2022-11-10T10:53:18.838Z,95187.00
2022-11-10T10:56:13.147Z,95181.00
2022-11-10T10:59:01.306Z,95182.00
2022-11-10T11:01:34.120Z,95189.00
2022-11-10T11:04:06.341Z,95182.00
2022-11-10T11:06:36.549Z,95183.00
2022-11-10T11:09:19.992Z,95171.00
2022-11-10T11:12:06.368Z,95173.00
2022-11-10T11:14:41.904Z,95172.00
2022-11-10T11:17:24.231Z,95177.00
2022-11-10T11:19:58.553Z,95173.00
2022-11-10T11:22:51.520Z,95168.00
2022-11-10T11:25:27.492Z,95167.00
2022-11-10T11:28:31.149Z,95159.00
2022-11-10T11:31:09.918Z,95160.00
2022-11-10T11:34:17.621Z,95155.00
2022-11-10T11:37:21.830Z,95165.00
2022-11-10T11:40:17.947Z,95165.00
2022-11-10T11:43:02.481Z,95167.00
2022-11-10T11:46:15.633Z,95155.00
2022-11-10T11:48:54.903Z,95169.00
2022-11-10T11:51:46.110Z,95173.00
2022-11-10T11:54:53.526Z,95176.00
2022-11-10T11:57:20.374Z,95179.00
2022-11-10T12:00:15.899Z,95165.00
2022-11-10T12:02:54.720Z,95179.00
2022-11-10T12:05:52.576Z,95179.00
2022-11-10T12:08:49.861Z,95177.00
2022-11-10T12:12:00.965Z,95155.00
2022-11-10T12:14:51.482Z,95161.00
2022-11-10T12:17:33.240Z,95158.00
2022-11-10T12:20:33.595Z,95159.00
2022-11-10T12:23:51.702Z,95168.00
2022-11-10T12:26:51.366Z,95156.00
2022-11-10T12:29:39.631Z,95149.00
2022-11-10T12:32:25.690Z,95150.00
2022-11-10T12:35:00.630Z,95125.00
2022-11-10T12:37:55.873Z,95145.00
2022-11-10T12:40:41.992Z,95145.00
2022-11-10T12:43:25.966Z,95142.00
2022-11-10T12:46:00.580Z,95145.00
2022-11-10T12:49:07.601Z,95156.00
2022-11-10T12:52:02.683Z,95146.00
2022-11-10T12:54:30.050Z,95139.00
2022-11-10T12:57:06.752Z,95135.00
2022-11-10T12:59:39.790Z,95134.00
2022-11-10T13:02:43.320Z,95133.00
2022-11-10T13:05:22.218Z,95135.00
2022-11-10T13:07:51.910Z,95141.00
2022-11-10T13:10:18.683Z,95148.00
2022-11-10T13:13:14.951Z,95145.00
2022-11-10T13:15:52.416Z,95143.00
2022-11-10T13:18:42.609Z,95145.00
2022-11-10T13:21:11.806Z,95144.00
2022-11-10T13:23:44.973Z,95132.00
2022-11-10T13:26:44.418Z,95127.00
2022-11-10T13:29:42.808Z,95127.00
2022-11-10T13:32:15.946Z,95127.00
2022-11-10T13:34:47.590Z,95131.00
2022-11-10T13:37:29.685Z,95125.00
2022-11-10T13:40:18.301Z,95131.00
2022-11-10T13:43:12.979Z,95129.00
2022-11-10T13:45:43.925Z,95128.00
2022-11-10T13:48:13.489Z,95128.00
2022-11-10T13:51:01.251Z,95132.00
2022-11-10T13:53:40.168Z,95131.00
2022-11-10T13:56:43.812Z,95137.00
2022-11-10T13:59:26.577Z,95141.00
2022-11-10T14:02:39.545Z,95149.00
2022-11-10T14:05:26.966Z,95147.00
2022-11-10T14:08:06.650Z,95148.00
2022-11-10T14:11:12.260Z,95147.00
2022-11-10T14:13:54.810Z,95142.00
2022-11-10T14:16:30.066Z,95150.00
2022-11-10T14:19:41.814Z,95149.00
2022-11-10T14:22:27.545Z,95155.00
2022-11-10T14:25:15.283Z,95168.00
2022-11-10T14:27:44.851Z,95153.00
2022-11-10T14:30:29.007Z,95159.00
2022-11-10T14:33:06.461Z,95164.00
2022-11-10T14:35:54.169Z,95153.00
2022-11-10T14:38:28.010Z,95171.00
2022-11-10T14:40:57.732Z,95160.00
2022-11-10T14:43:30.426Z,95169.00
2022-11-10T14:45:58.363Z,95171.00
2022-11-10T14:48:32.519Z,95172.00
2022-11-10T14:51:13.541Z,95179.00
2022-11-10T14:53:47.824Z,95172.00
2022-11-10T14:56:20.869Z,95178.00
2022-11-10T14:58:51.201Z,95180.00
2022-11-10T15:01:38.909Z,95172.00
2022-11-10T15:04:08.680Z,95201.00
2022-11-10T15:06:36.341Z,95173.00
2022-11-10T15:09:35.188Z,95186.00
2022-11-10T15:12:17.167Z,95178.00
2022-11-10T15:14:46.735Z,95180.00
2022-11-10T15:17:18.578Z,95179.00
2022-11-10T15:19:53.245Z,95183.00
2022-11-10T15:22:37.056Z,95180.00
2022-11-10T15:25:22.922Z,95187.00
2022-11-10T15:28:15.120Z,95190.00
2022-11-10T15:31:03.621Z,95192.00
2022-11-10T15:33:34.610Z,95192.00
2022-11-10T15:36:15.118Z,95195.00
2022-11-10T15:38:42.020Z,95202.00
2022-11-10T15:41:36.246Z,95210.00
2022-11-10T15:44:24.952Z,95213.00
2022-11-10T15:46:59.587Z,95216.00
2022-11-10T15:49:35.369Z,95212.00
2022-11-10T15:52:12.699Z,95222.00
2022-11-10T15:54:39.819Z,95223.00
2022-11-10T15:57:18.097Z,95229.00
2022-11-10T15:59:45.694Z,95226.00
2022-11-10T16:02:32.853Z,95233.00
2022-11-10T16:05:02.291Z,95233.00
2022-11-10T16:07:29.127Z,95238.00
2022-11-10T16:09:58.467Z,95226.00
2022-11-10T16:12:25.727Z,95236.00
2022-11-10T16:14:53.679Z,95243.00
2022-11-10T16:17:22.409Z,95250.00
2022-11-10T16:19:49.269Z,95254.00
2022-11-10T16:22:18.281Z,95258.00
2022-11-10T16:24:45.143Z,95256.00
2022-11-10T16:27:15.348Z,95259.00
2022-11-10T16:29:43.273Z,95266.00
2022-11-10T16:32:11.731Z,95264.00
2022-11-10T16:34:38.697Z,95267.00
2022-11-10T16:37:05.640Z,95260.00
2022-11-10T16:39:35.104Z,95271.00
2022-11-10T16:42:01.911Z,95279.00
2022-11-10T16:44:28.775Z,95277.00
2022-11-10T16:46:58.870Z,95275.00
2022-11-10T16:49:34.684Z,95279.00
2022-11-10T16:52:16.344Z,95283.00
2022-11-10T16:54:43.114Z,95277.00
2022-11-10T16:57:17.354Z,95294.00
2022-11-10T16:59:45.702Z,95278.00
2022-11-10T17:02:29.415Z,95296.00
2022-11-10T17:04:58.871Z,95299.00
2022-11-10T17:07:28.060Z,95291.00
2022-11-10T17:09:57.656Z,95310.00
2022-11-10T17:12:24.525Z,95320.00
2022-11-10T17:14:51.409Z,95315.00
2022-11-10T17:17:20.139Z,95322.00
2022-11-10T17:19:53.770Z,95324.00
2022-11-10T17:22:22.714Z,95325.00
2022-11-10T17:24:55.371Z,95331.00
2022-11-10T17:27:22.219Z,95339.00
2022-11-10T17:29:52.544Z,95342.00
2022-11-10T17:32:27.875Z,95338.00
2022-11-10T17:35:04.399Z,95332.00
2022-11-10T17:37:33.788Z,95335.00
2022-11-10T17:40:07.818Z,95304.00
2022-11-10T17:42:39.075Z,95347.00
2022-11-10T17:45:08.866Z,95342.00
2022-11-10T17:47:35.728Z,95353.00
2022-11-10T17:50:02.586Z,95337.00
2022-11-10T17:52:31.988Z,95358.00
2022-11-10T17:54:58.856Z,95349.00
2022-11-10T17:57:28.653Z,95356.00
2022-11-10T17:59:55.940Z,95335.00
2022-11-10T18:02:22.815Z,95355.00
2022-11-10T18:04:49.629Z,95361.00
2022-11-10T18:07:21.526Z,95356.00
2022-11-10T18:09:48.475Z,95358.00
2022-11-10T18:12:17.651Z,95359.00
2022-11-10T18:14:44.540Z,95364.00
2022-11-10T18:17:11.374Z,95370.00
2022-11-10T18:19:41.355Z,95364.00
2022-11-10T18:22:08.311Z,95364.00
2022-11-10T18:24:37.697Z,95372.00
2022-11-10T18:27:04.591Z,95371.00
2022-11-10T18:29:33.707Z,95358.00
2022-11-10T18:32:00.636Z,95373.00
2022-11-10T18:34:27.662Z,95383.00
2022-11-10T18:36:54.709Z,95387.00
2022-11-10T18:39:24.277Z,95388.00
2022-11-10T18:41:52.456Z,95383.00
2022-11-10T18:44:20.633Z,95387.00
2022-11-10T18:46:50.505Z,95379.00
2022-11-10T18:49:20.790Z,95381.00
2022-11-10T18:51:50.461Z,95362.00
2022-11-10T18:54:19.869Z,95376.00
2022-11-10T18:56:52.531Z,95378.00
2022-11-10T18:59:19.686Z,95371.00
2022-11-10T19:01:46.939Z,95383.00
2022-11-10T19:04:19.483Z,95386.00
2022-11-10T19:06:46.545Z,95382.00
2022-11-10T19:09:15.738Z,95394.00
2022-11-10T19:11:45.103Z,95390.00
2022-11-10T19:14:14.445Z,95403.00
2022-11-10T19:16:46.362Z,95406.00
2022-11-10T19:19:15.821Z,95406.00
2022-11-10T19:21:43.152Z,95414.00
2022-11-10T19:24:18.135Z,95399.00
2022-11-10T19:26:53.099Z,95406.00
2022-11-10T19:29:24.971Z,95419.00
2022-11-10T19:31:54.420Z,95411.00
2022-11-10T19:34:21.407Z,95421.00
2022-11-10T19:36:51.072Z,95428.00
2022-11-10T19:39:18.063Z,95426.00
2022-11-10T19:41:45.008Z,95416.00
2022-11-10T19:44:14.407Z,95413.00
2022-11-10T19:46:41.581Z,95418.00
2022-11-10T19:49:10.771Z,95419.00
2022-11-10T19:51:37.699Z,95403.00
2022-11-10T19:54:08.958Z,95420.00
2022-11-10T19:56:36.010Z,95422.00
2022-11-10T19:59:03.180Z,95420.00
2022-11-10T20:01:33.514Z,95419.00
2022-11-10T20:04:01.744Z,95413.00
2022-11-10T20:06:28.890Z,95418.00
2022-11-10T20:08:58.439Z,95424.00
2022-11-10T20:11:27.181Z,95414.00
2022-11-10T20:14:00.477Z,95422.00
2022-11-10T20:16:30.195Z,95420.00
2022-11-10T20:18:57.701Z,95421.00
2022-11-10T20:21:30.085Z,95424.00
2022-11-10T20:23:59.447Z,95436.00
2022-11-10T20:26:31.862Z,95432.00
2022-11-10T20:28:58.771Z,95419.00
2022-11-10T20:31:28.679Z,95427.00
2022-11-10T20:33:56.651Z,95421.00
2022-11-10T20:36:28.724Z,95429.00
2022-11-10T20:39:00.676Z,95425.00
2022-11-10T20:41:29.702Z,95429.00
2022-11-10T20:43:56.665Z,95416.00
2022-11-10T20:46:55.107Z,95418.00
2022-11-10T20:49:11.081Z,95420.00
2022-11-10T20:51:43.673Z,95428.00
2022-11-10T20:54:15.092Z,95439.00
2022-11-10T20:56:42.020Z,95435.00
2022-11-10T20:59:09.056Z,95434.00
2022-11-10T21:01:37.612Z,95435.00
2022-11-10T21:04:07.163Z,95438.00
2022-11-10T21:06:34.084Z,95435.00
2022-11-10T21:09:01.500Z,95437.00
2022-11-10T21:11:46.867Z,95436.00
2022-11-10T21:14:14.075Z,95433.00
2022-11-10T21:16:41.059Z,95441.00
2022-11-10T21:19:14.136Z,95444.00
2022-11-10T21:21:41.058Z,95444.00
2022-11-10T21:24:13.548Z,95445.00
2022-11-10T21:26:42.985Z,95440.00
2022-11-10T21:29:12.967Z,95442.00
2022-11-10T21:31:42.579Z,95443.00
2022-11-10T21:34:09.720Z,95441.00
2022-11-10T21:36:36.977Z,95450.00
2022-11-10T21:39:06.077Z,95448.00
2022-11-10T21:41:36.008Z,95465.00
2022-11-10T21:44:02.919Z,95463.00
2022-11-10T21:46:31.934Z,95465.00
2022-11-10T21:49:03.154Z,95465.00
2022-11-10T21:51:33.451Z,95460.00
2022-11-10T21:54:00.345Z,95451.00
2022-11-10T21:56:29.607Z,95467.00
2022-11-10T21:59:00.119Z,95464.00
2022-11-10T22:01:27.110Z,95450.00
2022-11-10T22:03:56.597Z,95462.00
2022-11-10T22:06:45.535Z,95448.00
2022-11-10T22:09:32.524Z,95442.00
2022-11-10T22:12:17.852Z,95434.00
2022-11-10T22:15:03.228Z,95430.00
2022-11-10T22:17:50.573Z,95431.00
2022-11-10T22:20:17.709Z,95433.00
2022-11-10T22:22:47.109Z,95425.00
2022-11-10T22:25:14.074Z,95434.00
2022-11-10T22:27:40.959Z,95423.00
2022-11-10T22:30:08.928Z,95429.00
2022-11-10T22:32:35.891Z,95431.00
2022-11-10T22:35:02.858Z,95439.00
2022-11-10T22:37:33.261Z,95442.00
2022-11-10T22:40:21.017Z,95439.00
2022-11-10T22:43:09.001Z,95424.00
2022-11-10T22:45:38.658Z,95419.00
2022-11-10T22:48:23.929Z,95438.00
2022-11-10T22:50:58.638Z,95425.00
2022-11-10T22:53:29.018Z,95432.00
2022-11-10T22:56:01.608Z,95431.00
2022-11-10T22:58:28.424Z,95438.00
2022-11-10T23:01:07.240Z,95440.00
2022-11-10T23:03:37.913Z,95445.00
2022-11-10T23:06:10.287Z,95434.00
2022-11-10T23:08:37.355Z,95434.00
2022-11-10T23:11:32.432Z,95421.00
2022-11-10T23:14:01.441Z,95440.00
2022-11-10T23:16:33.635Z,95437.00
2022-11-10T23:19:02.809Z,95438.00
2022-11-10T23:21:35.292Z,95441.00
2022-11-10T23:24:04.877Z,95438.00
2022-11-10T23:26:34.893Z,95437.00
2022-11-10T23:29:01.960Z,95442.00
2022-11-10T23:31:28.926Z,95433.00
2022-11-10T23:33:57.800Z,95433.00
2022-11-10T23:36:27.460Z,95431.00
2022-11-10T23:38:55.380Z,95428.00
2022-11-10T23:41:27.118Z,95432.00
2022-11-10T23:43:54.177Z,95432.00
2022-11-10T23:46:21.169Z,95423.00
2022-11-10T23:48:48.027Z,95434.00
2022-11-10T23:51:15.948Z,95444.00
2022-11-10T23:53:45.984Z,95439.00
2022-11-10T23:56:15.837Z,95426.00
2022-11-10T23:58:42.725Z,95440.00
